Terminal Aerodrome Forecast
Issued by NWS Pocatello, ID

Home | Current Version | Previous Version | Text Only | Print | Product List | Glossary On
Versions: 1 2 3 4 5 6 7 8 9 10 11 12
000
FTUS45 KPIH 162300
TAFBYI
TAF
KBYI 162320Z 1700/1724 34006KT P6SM VCTS FEW080CB BKN110
     FM170200 VRB03KT P6SM SCT110
     FM170400 VRB03KT P6SM BKN110
     FM171200 09006KT P6SM BKN090 BKN200
     FM171900 14006KT P6SM SCT090 SCT200=

USA.gov is the U.S. government's official web portal to all federal, state and local government web resources and services.